Time;durP1;ratioP1;P1;durP2;ratioP2;P2;SDS_P1;SDS_P2;PMS_P1;PMS_P2;Temp;Humidity;BMP_temperature;BMP_pressure;BME280_temperature;BME280_humidity;BME280_pressure;Samples;Min_cycle;Max_cycle;Signal;HPM_P1;HPM_P2
2021/10/07 00:01:02;;;;;;;3.00;1.03;;;;;;;8.49;100.00;96936.78;4936710;28;20039;-78
2021/10/07 00:03:28;;;;;;;5.23;1.30;;;;;;;8.34;100.00;96940.66;4936952;28;20074;-78
2021/10/07 00:05:53;;;;;;;5.17;1.40;;;;;;;8.34;100.00;96932.78;4955697;28;20043;-78
2021/10/07 00:08:19;;;;;;;4.47;1.53;;;;;;;8.28;100.00;96934.13;4956280;28;20038;-79
2021/10/07 00:10:45;;;;;;;3.13;1.40;;;;;;;8.35;100.00;96935.31;4940217;28;20114;-79
2021/10/07 00:13:20;;;;;;;3.23;1.33;;;;;;;8.27;100.00;96935.09;4956665;28;20034;-78
2021/10/07 00:15:45;;;;;;;6.83;2.13;;;;;;;8.22;100.00;96921.56;4940200;28;20928;-78
2021/10/07 00:18:11;;;;;;;4.77;1.87;;;;;;;8.22;100.00;96925.00;4940059;28;20030;-79
2021/10/07 00:20:37;;;;;;;5.87;2.10;;;;;;;8.15;100.00;96928.25;4940292;28;20470;-78
2021/10/07 00:23:03;;;;;;;4.63;2.00;;;;;;;8.19;100.00;96916.56;4936908;29;20051;-78
2021/10/07 00:25:29;;;;;;;4.60;1.80;;;;;;;8.26;100.00;96918.53;4954795;28;20496;-79
2021/10/07 00:28:02;;;;;;;5.07;2.20;;;;;;;8.31;100.00;96912.06;4942636;28;20035;-78
2021/10/07 00:30:28;;;;;;;7.20;2.10;;;;;;;8.23;100.00;96925.84;4975320;28;20481;-78
2021/10/07 00:35:49;;;;;;;5.57;1.90;;;;;;;8.19;100.00;96927.88;4955805;28;20117;-77
2021/10/07 00:40:59;;;;;;;5.57;2.43;;;;;;;8.24;100.00;96930.09;4947587;28;20088;-78
2021/10/07 00:43:25;;;;;;;6.80;2.20;;;;;;;8.21;100.00;96940.84;4955614;28;20169;-79
2021/10/07 00:45:54;;;;;;;5.07;1.80;;;;;;;8.26;100.00;96926.41;4939225;28;20026;-78
2021/10/07 00:48:20;;;;;;;4.70;2.07;;;;;;;8.20;100.00;96929.53;4939317;28;20031;-78
2021/10/07 00:50:46;;;;;;;5.63;2.13;;;;;;;8.24;100.00;96930.09;4939588;28;20027;-79
2021/10/07 00:53:13;;;;;;;4.97;2.43;;;;;;;8.29;100.00;96932.34;4936170;28;20026;-78
2021/10/07 00:55:40;;;;;;;5.97;2.27;;;;;;;8.24;100.00;96932.72;4939909;28;20092;-78
2021/10/07 00:58:06;;;;;;;5.60;1.83;;;;;;;8.32;100.00;96930.31;4954354;28;20489;-78
2021/10/07 01:00:32;;;;;;;4.77;2.10;;;;;;;8.33;100.00;96939.81;4939003;28;20031;-78
2021/10/07 01:02:57;;;;;;;2.83;1.70;;;;;;;8.30;100.00;96937.47;4948449;28;20350;-78
2021/10/07 01:05:23;;;;;;;4.10;2.20;;;;;;;8.32;100.00;96934.72;4955652;28;20077;-78
2021/10/07 01:07:51;;;;;;;5.97;2.27;;;;;;;8.19;100.00;96940.16;4972992;28;20036;-78
2021/10/07 01:10:16;;;;;;;7.83;2.17;;;;;;;8.23;100.00;96944.16;4955409;28;20070;-77
2021/10/07 01:12:42;;;;;;;3.70;1.97;;;;;;;8.22;100.00;96935.47;4972847;28;20111;-77
2021/10/07 01:15:08;;;;;;;6.53;2.27;;;;;;;8.25;100.00;96937.84;4954699;28;20042;-77
2021/10/07 01:17:34;;;;;;;6.43;2.30;;;;;;;8.23;100.00;96937.13;4953830;28;20473;-77
2021/10/07 01:20:02;;;;;;;3.97;1.90;;;;;;;8.18;100.00;96934.09;4955707;28;20106;-77
2021/10/07 01:22:29;;;;;;;3.67;2.00;;;;;;;8.15;100.00;96938.72;4938568;28;20027;-78
2021/10/07 01:24:56;;;;;;;4.97;1.93;;;;;;;8.20;100.00;96939.19;4971966;28;20113;-77
2021/10/07 01:27:25;;;;;;;4.93;2.03;;;;;;;8.19;100.00;96942.78;4954035;28;20849;-78
2021/10/07 01:29:58;;;;;;;3.80;1.70;;;;;;;8.21;100.00;96936.41;4936081;29;20118;-77
2021/10/07 01:32:24;;;;;;;7.53;2.60;;;;;;;8.22;100.00;96927.63;4947211;28;20504;-78
2021/10/07 01:34:50;;;;;;;8.60;2.37;;;;;;;8.21;100.00;96930.34;4954846;28;20027;-77
2021/10/07 01:37:16;;;;;;;7.60;2.23;;;;;;;8.26;100.00;96933.44;4969047;28;20031;-78
2021/10/07 01:39:43;;;;;;;5.93;2.20;;;;;;;8.21;100.00;96944.28;4954247;28;20093;-77
2021/10/07 01:42:09;;;;;;;6.73;2.47;;;;;;;8.20;100.00;96940.00;4946420;28;20121;-78
2021/10/07 01:44:34;;;;;;;4.50;2.00;;;;;;;8.25;100.00;96948.34;4958190;28;20033;-77
2021/10/07 01:47:00;;;;;;;5.73;1.90;;;;;;;8.26;100.00;96938.69;4953861;28;20118;-78
2021/10/07 01:49:26;;;;;;;4.63;1.87;;;;;;;8.27;100.00;96949.03;4953483;28;20023;-77
2021/10/07 01:51:52;;;;;;;4.30;2.37;;;;;;;8.17;100.00;96939.44;4939066;28;20038;-77
2021/10/07 01:54:18;;;;;;;6.67;2.27;;;;;;;8.23;100.00;96933.69;4938347;28;20025;-77
2021/10/07 01:56:48;;;;;;;4.37;2.17;;;;;;;8.21;100.00;96932.97;4937645;28;20030;-77
2021/10/07 01:59:16;;;;;;;5.00;2.03;;;;;;;8.18;100.00;96934.09;4970261;28;20685;-77
2021/10/07 02:01:41;;;;;;;6.90;2.20;;;;;;;8.09;100.00;96940.06;4951196;28;20030;-77
2021/10/07 02:07:57;;;;;;;6.47;2.20;;;;;;;8.15;100.00;96936.94;4973968;28;20122;-77
2021/10/07 02:10:24;;;;;;;5.70;2.40;;;;;;;8.15;100.00;96930.84;4978378;28;20030;-77
2021/10/07 02:12:52;;;;;;;3.17;1.70;;;;;;;8.13;100.00;96932.78;4956738;28;20031;-77
2021/10/07 02:15:22;;;;;;;3.50;2.03;;;;;;;8.16;100.00;96937.78;4956181;28;20041;-77
2021/10/07 02:17:48;;;;;;;5.43;2.20;;;;;;;8.15;100.00;96938.72;4951119;28;20085;-78
2021/10/07 02:20:14;;;;;;;5.30;2.43;;;;;;;8.08;100.00;96941.03;4945477;28;20621;-78
2021/10/07 02:22:41;;;;;;;6.03;2.37;;;;;;;8.10;100.00;96941.72;4948668;28;20042;-78
2021/10/07 02:25:10;;;;;;;5.23;2.37;;;;;;;8.07;100.00;96941.97;4951640;28;20065;-78
2021/10/07 02:27:36;;;;;;;3.90;2.13;;;;;;;8.11;100.00;96943.38;4939434;28;20059;-78
2021/10/07 02:30:06;;;;;;;4.37;2.50;;;;;;;8.09;100.00;96947.94;4956289;28;20741;-78
2021/10/07 02:32:32;;;;;;;7.53;3.20;;;;;;;8.11;100.00;96948.63;4947304;28;20149;-78
2021/10/07 02:34:58;;;;;;;6.63;2.77;;;;;;;8.12;100.00;96942.44;4956125;28;20121;-77
2021/10/07 02:37:24;;;;;;;9.60;3.70;;;;;;;8.10;100.00;96948.75;4973119;28;20045;-78
2021/10/07 02:39:55;;;;;;;7.23;2.80;;;;;;;8.10;100.00;96949.59;4961988;28;20026;-79
2021/10/07 02:42:21;;;;;;;5.17;3.10;;;;;;;8.09;100.00;96947.09;4956316;28;20030;-78
2021/10/07 02:44:47;;;;;;;5.00;2.73;;;;;;;8.10;100.00;96949.59;4954845;28;20027;-77
2021/10/07 02:47:13;;;;;;;7.93;3.40;;;;;;;8.16;100.00;96949.09;4972260;28;20030;-77
2021/10/07 02:49:38;;;;;;;8.13;3.70;;;;;;;8.14;100.00;96956.22;4955747;28;20018;-77
2021/10/07 02:52:05;;;;;;;5.57;2.83;;;;;;;8.13;100.00;96957.19;4933853;28;20042;-78
2021/10/07 02:54:30;;;;;;;8.93;4.60;;;;;;;8.16;100.00;96954.31;4946948;28;20773;-78
2021/10/07 02:56:56;;;;;;;7.13;3.60;;;;;;;8.14;100.00;96953.59;4939364;28;20042;-78
2021/10/07 02:59:22;;;;;;;6.23;3.10;;;;;;;8.20;100.00;96954.91;4956049;28;20081;-77
2021/10/07 03:01:48;;;;;;;5.30;3.50;;;;;;;8.18;100.00;96957.66;4955536;28;20129;-78
2021/10/07 03:04:15;;;;;;;6.03;3.73;;;;;;;8.15;100.00;96957.91;4949077;28;20027;-77
2021/10/07 03:06:41;;;;;;;9.43;4.00;;;;;;;8.20;100.00;96963.59;4953990;28;20089;-78
2021/10/07 03:09:07;;;;;;;8.00;4.20;;;;;;;8.14;100.00;96961.47;4971014;28;20081;-78
2021/10/07 03:11:34;;;;;;;8.77;4.67;;;;;;;8.19;100.00;96963.72;4970127;28;20453;-78
2021/10/07 03:14:00;;;;;;;8.63;4.13;;;;;;;8.16;100.00;96966.59;4953129;28;20093;-78
2021/10/07 03:16:33;;;;;;;7.40;4.40;;;;;;;8.16;100.00;96964.81;4951779;28;20043;-79
2021/10/07 03:18:59;;;;;;;8.27;4.20;;;;;;;8.25;100.00;96973.72;4953060;28;20038;-78
2021/10/07 03:21:25;;;;;;;8.50;4.90;;;;;;;8.19;100.00;96968.97;4970320;28;20039;-78
2021/10/07 03:23:51;;;;;;;7.77;4.67;;;;;;;8.19;100.00;96972.41;4942132;28;20045;-78
2021/10/07 03:26:17;;;;;;;9.70;5.17;;;;;;;8.18;100.00;96968.13;4952870;28;20054;-78
2021/10/07 03:28:43;;;;;;;7.50;4.70;;;;;;;8.21;100.00;96978.34;4965388;28;20139;-78
2021/10/07 03:31:09;;;;;;;8.73;5.23;;;;;;;8.25;100.00;96973.72;4945078;28;20400;-77
2021/10/07 03:33:36;;;;;;;6.27;4.40;;;;;;;8.23;100.00;96971.19;4936215;28;20030;-78
2021/10/07 03:36:05;;;;;;;9.67;5.63;;;;;;;8.22;100.00;96980.03;4953322;28;20027;-77
2021/10/07 03:38:30;;;;;;;7.63;5.13;;;;;;;8.19;100.00;96979.44;4935286;28;20031;-77
2021/10/07 03:40:57;;;;;;;9.03;5.13;;;;;;;8.24;100.00;96977.25;4936783;28;20026;-77
2021/10/07 03:43:30;;;;;;;7.63;5.40;;;;;;;8.18;100.00;96976.00;4952888;28;20121;-77
2021/10/07 03:45:56;;;;;;;7.65;5.13;;;;;;;8.25;100.00;96984.19;4936397;28;20098;-77
2021/10/07 03:48:21;;;;;;;7.97;4.97;;;;;;;8.23;100.00;96983.47;4942371;28;20035;-77
2021/10/07 03:50:47;;;;;;;8.37;4.63;;;;;;;8.24;100.00;96993.00;4953053;28;20497;-77
2021/10/07 03:53:14;;;;;;;8.47;5.47;;;;;;;8.20;100.00;96991.59;4952997;28;20478;-78
2021/10/07 03:55:40;;;;;;;10.17;6.30;;;;;;;8.17;100.00;96997.91;4951338;28;20041;-77
2021/10/07 03:58:06;;;;;;;10.50;5.37;;;;;;;8.24;100.00;96995.59;4969551;28;20038;-77
2021/10/07 04:00:31;;;;;;;8.97;5.60;;;;;;;8.25;100.00;96999.91;4930005;28;20065;-77
2021/10/07 04:03:03;;;;;;;8.17;5.07;;;;;;;8.18;100.00;97004.81;4952248;28;20023;-77
2021/10/07 04:05:30;;;;;;;10.87;4.00;;;;;;;8.12;100.00;97010.56;4959943;28;20378;-77
2021/10/07 04:07:56;;;;;;;5.80;3.83;;;;;;;8.10;100.00;97007.22;4947923;28;20027;-77
2021/10/07 04:10:22;;;;;;;6.50;3.53;;;;;;;7.91;100.00;97022.75;4939754;28;20027;-77
2021/10/07 04:12:48;;;;;;;8.50;4.17;;;;;;;7.83;100.00;97019.94;4961395;28;20022;-77
2021/10/07 04:15:14;;;;;;;7.50;4.63;;;;;;;7.81;100.00;97020.03;4968682;28;20062;-77
2021/10/07 04:17:40;;;;;;;9.53;5.03;;;;;;;7.91;100.00;97017.50;4947845;28;20113;-77
2021/10/07 04:20:06;;;;;;;8.47;4.67;;;;;;;7.98;100.00;97018.69;4954807;28;20124;-77
2021/10/07 04:22:35;;;;;;;8.50;4.70;;;;;;;7.98;100.00;97027.41;4946213;28;20126;-77
2021/10/07 04:25:14;;;;;;;7.93;4.77;;;;;;;8.01;100.00;97018.44;4970100;28;20038;-77
2021/10/07 04:27:40;;;;;;;9.50;5.87;;;;;;;8.05;100.00;97022.50;4952636;28;20472;-77
2021/10/07 04:30:08;;;;;;;7.17;5.50;;;;;;;8.02;100.00;97023.56;4936613;28;20173;-77
2021/10/07 04:32:34;;;;;;;11.03;6.10;;;;;;;8.10;100.00;97022.09;4951782;28;20465;-77
2021/10/07 04:35:07;;;;;;;11.03;6.40;;;;;;;8.05;100.00;97030.34;4947959;29;20474;-78
2021/10/07 04:37:38;;;;;;;;;;;;;;;8.11;100.00;97029.00;4947134;28;20042;-78
2021/10/07 04:40:06;;;;;;;12.33;5.73;;;;;;;8.09;100.00;97023.91;4939398;28;20012;-78
2021/10/07 04:42:31;;;;;;;9.07;6.20;;;;;;;8.09;100.00;97031.75;4952229;28;20019;-76
2021/10/07 04:44:57;;;;;;;11.43;8.10;;;;;;;8.12;100.00;97028.91;4969379;28;20054;-76
2021/10/07 04:47:23;;;;;;;9.17;7.47;;;;;;;8.17;100.00;97031.13;4950917;28;20070;-76
2021/10/07 04:49:48;;;;;;;12.73;9.03;;;;;;;8.17;100.00;97024.09;4952036;28;20027;-76
2021/10/07 04:52:15;;;;;;;13.43;8.07;;;;;;;8.18;100.00;97025.78;4947431;28;20109;-76
2021/10/07 04:54:47;;;;;;;9.83;6.13;;;;;;;8.21;100.00;97028.13;4973071;28;20776;-76
2021/10/07 04:57:16;;;;;;;8.77;6.43;;;;;;;8.22;100.00;97032.44;4952118;28;20039;-77
2021/10/07 04:59:42;;;;;;;11.97;5.67;;;;;;;8.19;100.00;97037.91;4952280;28;20015;-76
2021/10/07 05:02:08;;;;;;;10.03;6.57;;;;;;;8.08;100.00;97037.97;4943956;28;20046;-76
2021/10/07 05:04:34;;;;;;;10.73;5.23;;;;;;;8.11;100.00;97042.09;4955375;28;20121;-76
2021/10/07 05:07:04;;;;;;;11.53;6.47;;;;;;;8.14;100.00;97050.53;4939206;28;20185;-76
2021/10/07 05:09:31;;;;;;;9.77;5.73;;;;;;;8.16;100.00;97050.44;4939323;28;20035;-76
2021/10/07 05:11:57;;;;;;;8.03;5.17;;;;;;;8.20;100.00;97050.06;4954359;28;20478;-77
2021/10/07 05:14:23;;;;;;;8.43;5.47;;;;;;;8.24;100.00;97046.22;4947095;28;20126;-77
2021/10/07 05:16:48;;;;;;;9.83;5.87;;;;;;;8.22;100.00;97052.56;4958906;28;20026;-77
2021/10/07 05:19:14;;;;;;;11.73;6.27;;;;;;;8.25;100.00;97045.28;4956297;28;20038;-76
2021/10/07 05:21:41;;;;;;;11.90;9.07;;;;;;;8.26;100.00;97049.56;4951497;28;20437;-77
2021/10/07 05:24:15;;;;;;;39.30;30.67;;;;;;;8.25;100.00;97053.16;4948552;28;20038;-77
2021/10/07 05:26:41;;;;;;;18.50;13.13;;;;;;;8.23;100.00;97044.56;4942195;29;20045;-77
2021/10/07 05:29:08;;;;;;;7.97;6.23;;;;;;;8.23;100.00;97055.03;4950231;28;20042;-76
2021/10/07 05:31:42;;;;;;;9.30;5.43;;;;;;;8.20;100.00;97050.06;4946065;28;20034;-76
2021/10/07 05:34:13;;;;;;;8.97;5.77;;;;;;;8.23;100.00;97064.69;4950324;28;20125;-76
2021/10/07 05:36:39;;;;;;;7.80;5.40;;;;;;;8.25;100.00;97053.16;4954785;28;20570;-76
2021/10/07 05:39:05;;;;;;;6.80;5.23;;;;;;;8.26;100.00;97059.22;4971944;28;20109;-77
2021/10/07 05:41:31;;;;;;;8.63;5.60;;;;;;;8.27;100.00;97060.88;4971237;28;20149;-77
2021/10/07 05:43:57;;;;;;;8.43;5.97;;;;;;;8.27;100.00;97058.25;4954869;28;20558;-77
2021/10/07 05:46:23;;;;;;;10.73;7.83;;;;;;;8.27;100.00;97059.06;4969891;28;20086;-76
2021/10/07 05:48:48;;;;;;;10.53;6.57;;;;;;;8.31;100.00;97061.44;4953842;28;20022;-76
2021/10/07 05:51:14;;;;;;;8.73;5.73;;;;;;;8.33;100.00;97059.56;4968778;28;20042;-77
2021/10/07 05:53:40;;;;;;;8.30;5.87;;;;;;;8.29;100.00;97066.00;4950972;28;20389;-77
2021/10/07 05:56:13;;;;;;;7.70;5.67;;;;;;;8.32;100.00;97063.13;4936254;28;20101;-76
2021/10/07 05:58:39;;;;;;;8.38;5.55;;;;;;;8.33;100.00;97072.66;4953608;28;20034;-77
2021/10/07 06:01:25;;;;;;;9.07;5.53;;;;;;;8.31;100.00;97071.94;4945914;29;20082;-77
2021/10/07 06:03:51;;;;;;;9.60;5.73;;;;;;;8.25;100.00;97078.53;4953071;28;20033;-77
2021/10/07 06:06:17;;;;;;;9.50;6.13;;;;;;;8.32;100.00;97073.63;4935468;28;20114;-76
2021/10/07 06:08:46;;;;;;;8.93;6.00;;;;;;;8.35;100.00;97078.59;4954539;28;20062;-76
2021/10/07 06:11:13;;;;;;;10.13;6.17;;;;;;;8.40;100.00;97073.84;4937446;28;20507;-77
2021/10/07 06:13:39;;;;;;;8.47;6.13;;;;;;;8.47;100.00;97078.44;4939100;28;20026;-76
2021/10/07 06:16:05;;;;;;;9.33;5.90;;;;;;;8.47;100.00;97077.63;4938316;28;20394;-77
2021/10/07 06:18:31;;;;;;;11.33;5.70;;;;;;;8.47;100.00;97082.88;4935741;28;20035;-77
2021/10/07 06:20:56;;;;;;;8.77;6.23;;;;;;;8.58;100.00;97088.06;4936005;28;20027;-77
2021/10/07 06:23:22;;;;;;;8.67;6.10;;;;;;;8.69;100.00;97084.56;4954884;28;20054;-77
2021/10/07 06:25:49;;;;;;;10.33;5.63;;;;;;;8.74;100.00;97083.22;4936804;28;20121;-78
2021/10/07 06:28:15;;;;;;;7.23;5.13;;;;;;;8.73;100.00;97084.19;4971363;28;20049;-77
2021/10/07 06:30:40;;;;;;;7.03;4.60;;;;;;;8.86;100.00;97086.63;4943433;28;20118;-78
2021/10/07 06:33:06;;;;;;;9.97;4.90;;;;;;;8.94;100.00;97088.59;4952080;28;20470;-80
2021/10/07 06:35:32;;;;;;;8.63;5.00;;;;;;;8.93;100.00;97090.41;4937664;28;20599;-77
2021/10/07 06:37:58;;;;;;;8.03;4.70;;;;;;;9.00;100.00;97085.47;4938662;28;20054;-77
2021/10/07 06:40:54;;;;;;;7.67;4.30;;;;;;;9.13;100.00;97095.78;4954567;28;20031;-77
2021/10/07 06:43:21;;;;;;;6.30;4.43;;;;;;;9.08;100.00;97098.78;4951597;28;20030;-77
2021/10/07 06:45:47;;;;;;;10.40;5.23;;;;;;;9.10;100.00;97096.84;4937992;28;20041;-77
2021/10/07 06:48:13;;;;;;;8.93;5.13;;;;;;;9.19;100.00;97100.50;4935991;28;20713;-78
2021/10/07 06:50:42;;;;;;;8.90;4.93;;;;;;;9.23;100.00;97099.28;4971714;28;20472;-77
2021/10/07 06:53:10;;;;;;;10.67;5.67;;;;;;;9.30;100.00;97107.47;4970086;28;20038;-78
2021/10/07 06:55:36;;;;;;;7.80;5.53;;;;;;;9.40;100.00;97105.72;4938371;28;20621;-78
2021/10/07 06:58:03;;;;;;;8.13;5.43;;;;;;;9.44;100.00;97102.69;4950569;28;20043;-78
2021/10/07 07:00:29;;;;;;;8.80;5.73;;;;;;;9.37;100.00;97098.13;4955782;28;20027;-78
2021/10/07 07:02:58;;;;;;;7.33;4.37;;;;;;;9.41;100.00;97110.84;4935454;28;20452;-78
2021/10/07 07:05:30;;;;;;;9.60;5.00;;;;;;;9.54;100.00;97115.06;4932971;28;20386;-78
2021/10/07 07:07:56;;;;;;;8.03;4.63;;;;;;;9.59;100.00;97112.84;4937472;28;20027;-78
2021/10/07 07:10:21;;;;;;;7.53;4.63;;;;;;;9.77;100.00;97107.84;4948016;28;20027;-78
2021/10/07 07:12:50;;;;;;;8.07;5.00;;;;;;;9.78;100.00;97112.13;4936803;28;20042;-78
2021/10/07 07:15:17;;;;;;;10.47;5.43;;;;;;;9.75;100.00;97117.63;4950746;28;20109;-78
2021/10/07 07:17:43;;;;;;;8.50;4.90;;;;;;;9.77;100.00;97121.78;4935519;28;20038;-78
2021/10/07 07:20:15;;;;;;;8.00;4.83;;;;;;;9.76;100.00;97125.41;4937889;28;20582;-78
2021/10/07 07:22:42;;;;;;;7.63;4.57;;;;;;;9.88;100.00;97126.09;4953586;28;20081;-78
2021/10/07 07:25:15;;;;;;;8.07;5.30;;;;;;;9.86;100.00;97117.56;4967149;28;20426;-79
2021/10/07 07:27:45;;;;;;;7.33;4.43;;;;;;;10.04;100.00;97123.81;4951995;28;20581;-78
2021/10/07 07:30:17;;;;;;;9.07;5.10;;;;;;;9.88;100.00;97134.81;4937537;28;20062;-79
2021/10/07 07:32:43;;;;;;;9.03;5.27;;;;;;;9.92;100.00;97135.38;4944994;28;20658;-78
2021/10/07 07:35:10;;;;;;;8.43;5.60;;;;;;;9.97;100.00;97137.63;4952355;28;20027;-78
2021/10/07 07:38:05;;;;;;;8.37;5.23;;;;;;;9.92;100.00;97135.38;4950021;28;20050;-78
2021/10/07 07:40:32;;;;;;;10.17;5.60;;;;;;;10.03;100.00;97145.81;4947380;28;20121;-78
2021/10/07 07:42:58;;;;;;;10.70;5.63;;;;;;;10.11;100.00;97138.09;4931978;28;20489;-78
2021/10/07 07:45:24;;;;;;;8.67;5.33;;;;;;;10.13;100.00;97138.78;4949228;28;20093;-78
2021/10/07 07:47:53;;;;;;;7.90;4.97;;;;;;;10.07;100.00;97151.63;4951452;28;20109;-78
2021/10/07 07:50:21;;;;;;;12.83;8.37;;;;;;;10.30;100.00;97149.66;4952836;28;20046;-78
2021/10/07 07:52:48;;;;;;;9.83;6.77;;;;;;;10.46;100.00;97149.97;4953457;28;20019;-78
2021/10/07 07:55:26;;;;;;;10.17;6.27;;;;;;;10.45;100.00;97155.34;4953170;28;20070;-78
2021/10/07 07:57:52;;;;;;;9.33;6.03;;;;;;;10.49;100.00;97152.31;4950806;28;20485;-78
2021/10/07 08:00:26;;;;;;;12.93;5.87;;;;;;;10.59;100.00;97161.03;4953346;28;20046;-78
2021/10/07 08:02:52;;;;;;;10.50;6.13;;;;;;;10.54;100.00;97157.16;4952780;28;20413;-78
2021/10/07 08:05:18;;;;;;;10.23;6.47;;;;;;;10.55;100.00;97158.81;4933694;28;20039;-78
2021/10/07 08:07:44;;;;;;;11.13;7.47;;;;;;;10.65;100.00;97158.84;4950180;28;20058;-77
2021/10/07 08:10:11;;;;;;;10.37;6.30;;;;;;;10.69;100.00;97155.78;4969972;28;20107;-78
2021/10/07 08:12:38;;;;;;;9.40;6.73;;;;;;;10.91;100.00;97159.97;4953371;28;20038;-78
2021/10/07 08:15:09;;;;;;;9.33;6.53;;;;;;;10.94;100.00;97159.69;4953233;28;20030;-78
2021/10/07 08:17:35;;;;;;;12.60;7.13;;;;;;;10.43;100.00;97166.03;4951639;28;20039;-78
2021/10/07 08:20:03;;;;;;;10.60;6.13;;;;;;;10.38;100.00;97161.16;4953218;28;20030;-78
2021/10/07 08:22:28;;;;;;;8.47;6.27;;;;;;;11.01;100.00;97168.69;4934831;28;20042;-78
2021/10/07 08:24:54;;;;;;;10.73;7.57;;;;;;;11.32;100.00;97164.09;4936556;28;20026;-78
2021/10/07 08:27:20;;;;;;;9.00;6.00;;;;;;;11.96;97.62;97167.81;4956346;28;20400;-77
2021/10/07 08:29:47;;;;;;;9.97;6.90;;;;;;;11.67;98.02;97162.63;4973880;28;20034;-78
2021/10/07 08:32:12;;;;;;;9.37;6.33;;;;;;;12.44;95.85;97156.22;4955574;28;20030;-78
2021/10/07 08:34:38;;;;;;;8.23;6.17;;;;;;;11.62;95.79;97174.56;4955990;28;20023;-78
2021/10/07 08:37:04;;;;;;;8.63;6.43;;;;;;;11.77;98.60;97167.88;4956709;28;20034;-78
2021/10/07 08:39:31;;;;;;;9.77;5.70;;;;;;;12.19;95.82;97164.81;4955945;28;20497;-78
2021/10/07 08:41:57;;;;;;;7.47;4.80;;;;;;;13.32;86.72;97161.69;4956352;28;20384;-78
2021/10/07 08:44:51;;;;;;;7.20;5.27;;;;;;;13.66;84.07;97163.56;4938369;28;20020;-82
2021/10/07 08:47:46;;;;;;;6.70;4.17;;;;;;;13.67;85.05;97162.56;4956738;28;20142;-83
2021/10/07 08:50:15;;;;;;;6.30;4.57;;;;;;;14.14;82.96;97160.34;4957774;28;20034;-83
2021/10/07 08:52:41;;;;;;;8.97;4.93;;;;;;;12.70;85.65;97166.03;4952134;28;20135;-83
2021/10/07 08:55:07;;;;;;;8.37;5.20;;;;;;;13.24;86.32;97168.66;4951935;28;20031;-83
2021/10/07 08:57:33;;;;;;;7.17;4.27;;;;;;;13.10;88.88;97159.47;4952235;28;20034;-82
2021/10/07 08:59:59;;;;;;;6.13;4.30;;;;;;;13.20;87.07;97162.88;4956360;28;20490;-83
2021/10/07 09:02:31;;;;;;;7.03;4.70;;;;;;;12.83;89.82;97160.38;4955987;28;20034;-82
2021/10/07 09:05:14;;;;;;;6.73;4.30;;;;;;;12.72;88.39;97166.72;4943778;28;20042;-83
2021/10/07 09:08:04;;;;;;;10.17;5.23;;;;;;;12.03;91.33;97170.72;4972543;28;20117;-83
2021/10/07 09:11:07;;;;;;;8.40;5.27;;;;;;;12.13;90.58;97174.13;4955008;28;20038;-82
2021/10/07 09:13:36;;;;;;;6.97;4.67;;;;;;;11.80;92.42;97172.84;4956119;28;20882;-83
2021/10/07 09:16:02;;;;;;;9.60;4.83;;;;;;;11.57;93.92;97173.19;4955158;28;20511;-83
2021/10/07 09:18:29;;;;;;;7.50;3.53;;;;;;;11.48;92.40;97174.03;4971239;28;20117;-82
2021/10/07 09:20:57;;;;;;;8.53;5.43;;;;;;;11.72;93.33;97176.19;4954719;28;20023;-82
2021/10/07 09:23:28;;;;;;;7.63;4.07;;;;;;;11.71;92.18;97171.09;4938850;28;20097;-82
2021/10/07 09:26:02;;;;;;;5.70;3.87;;;;;;;11.45;93.53;97181.41;4955765;28;20038;-83
2021/10/07 09:28:47;;;;;;;7.27;5.53;;;;;;;11.47;95.85;97188.19;4939249;28;20034;-83
2021/10/07 09:31:22;;;;;;;7.17;5.20;;;;;;;11.48;95.36;97189.03;4954596;28;20039;-82
2021/10/07 09:33:52;;;;;;;7.40;4.83;;;;;;;11.33;95.73;97183.34;4947995;28;20026;-82
2021/10/07 09:36:20;;;;;;;7.87;5.13;;;;;;;11.13;94.98;97182.53;4935643;28;20058;-83
2021/10/07 09:38:48;;;;;;;7.23;4.67;;;;;;;11.22;93.65;97184.31;4970566;28;20054;-83
2021/10/07 09:41:18;;;;;;;8.57;5.27;;;;;;;11.21;93.42;97176.59;4973056;28;20035;-82
2021/10/07 09:43:47;;;;;;;9.37;5.07;;;;;;;11.12;94.78;97180.03;4969543;28;20043;-82
2021/10/07 09:46:46;;;;;;;6.83;4.30;;;;;;;11.58;92.33;97184.56;4927274;28;20059;-82
2021/10/07 09:49:17;;;;;;;7.87;5.30;;;;;;;11.54;96.25;97181.38;4949978;28;20062;-82
2021/10/07 09:51:53;;;;;;;7.10;5.23;;;;;;;11.62;93.94;97185.09;4951493;28;20038;-82
2021/10/07 09:54:25;;;;;;;6.43;4.40;;;;;;;11.18;94.87;97190.03;4956195;28;20039;-82
2021/10/07 09:56:56;;;;;;;7.53;5.30;;;;;;;11.22;96.86;97184.31;4952564;28;20536;-82
2021/10/07 09:59:23;;;;;;;9.10;5.73;;;;;;;11.11;96.92;97184.47;4936406;28;20031;-82
2021/10/07 10:01:49;;;;;;;8.63;5.30;;;;;;;11.52;95.99;97174.59;4972037;28;20556;-82
2021/10/07 10:04:15;;;;;;;8.60;5.20;;;;;;;11.41;96.07;97182.66;4971412;28;20035;-82
2021/10/07 10:06:41;;;;;;;7.97;4.70;;;;;;;11.23;96.61;97185.16;4950893;28;20034;-82
2021/10/07 10:09:07;;;;;;;6.83;5.00;;;;;;;11.65;94.83;97192.72;4954107;28;20441;-82
2021/10/07 10:11:35;;;;;;;8.13;5.17;;;;;;;11.45;94.42;97186.66;4954503;28;20045;-82
2021/10/07 10:14:00;;;;;;;9.20;5.50;;;;;;;11.44;93.81;97188.47;4938186;28;20481;-83
2021/10/07 10:16:26;;;;;;;7.50;5.00;;;;;;;11.67;93.37;97185.50;4950803;28;20121;-82
2021/10/07 10:19:00;;;;;;;8.43;5.37;;;;;;;11.82;92.27;97184.06;4971273;28;20481;-82
2021/10/07 10:21:34;;;;;;;7.35;5.10;;;;;;;12.01;90.57;97188.50;4953985;28;20126;-82
2021/10/07 10:24:03;;;;;;;6.73;5.07;;;;;;;12.00;90.43;97189.44;4935742;28;20050;-82
2021/10/07 10:26:29;;;;;;;7.63;4.80;;;;;;;11.91;89.38;97185.88;4966258;28;20035;-82
2021/10/07 10:28:55;;;;;;;9.07;5.37;;;;;;;12.20;90.69;97184.94;4954439;28;20030;-82
2021/10/07 10:31:38;;;;;;;7.57;4.87;;;;;;;12.12;86.96;97190.13;4953627;28;20037;-82
2021/10/07 10:34:22;;;;;;;6.40;3.60;;;;;;;11.99;85.33;97188.63;4952795;28;20034;-82
2021/10/07 10:36:58;;;;;;;8.07;3.83;;;;;;;11.66;86.54;97197.00;4963980;28;20053;-82
2021/10/07 10:39:38;;;;;;;7.60;4.03;;;;;;;12.01;87.25;97191.97;4952937;28;20049;-81
2021/10/07 10:42:18;;;;;;;6.77;3.50;;;;;;;12.46;85.75;97199.09;4933247;28;20041;-82
2021/10/07 10:44:46;;;;;;;6.63;3.63;;;;;;;12.66;84.78;97199.81;4971196;28;20057;-82
2021/10/07 10:47:30;;;;;;;5.53;2.60;;;;;;;12.43;81.21;97196.75;4950026;28;20050;-82
2021/10/07 10:50:13;;;;;;;4.87;2.90;;;;;;;12.78;79.40;97192.53;4947314;28;20041;-83
2021/10/07 10:52:54;;;;;;;5.47;3.03;;;;;;;12.77;80.60;97192.66;4953767;28;20031;-82
2021/10/07 10:55:24;;;;;;;6.13;3.57;;;;;;;12.45;81.66;97192.16;4953594;28;20038;-82
2021/10/07 10:58:00;;;;;;;7.20;3.67;;;;;;;13.09;80.77;97185.06;4953617;28;20058;-82
2021/10/07 11:00:32;;;;;;;6.20;3.80;;;;;;;12.90;80.67;97185.22;4952763;28;20038;-82
2021/10/07 11:03:17;;;;;;;6.83;4.80;;;;;;;12.26;84.61;97194.91;4970446;28;20031;-82
2021/10/07 11:06:10;;;;;;;7.10;4.30;;;;;;;12.49;82.77;97182.97;4966901;28;20035;-82
2021/10/07 11:08:43;;;;;;;7.03;3.80;;;;;;;12.75;81.16;97182.25;4940640;28;20059;-82
2021/10/07 11:11:30;;;;;;;3.70;2.25;;;;;;;12.17;80.68;97187.84;4952173;28;20039;-82
2021/10/07 11:13:58;;;;;;;4.80;2.83;;;;;;;12.26;80.51;97186.97;4937203;28;20022;-83
2021/10/07 11:16:29;;;;;;;4.13;2.63;;;;;;;12.13;78.93;97186.50;4945241;28;20529;-82
2021/10/07 11:18:55;;;;;;;5.20;2.70;;;;;;;12.26;79.55;97189.63;4937488;28;20481;-84
2021/10/07 11:21:22;;;;;;;5.27;3.30;;;;;;;12.12;79.60;97182.19;4970765;28;20037;-83
2021/10/07 11:23:58;;;;;;;5.50;3.30;;;;;;;12.38;79.65;97177.91;4937674;28;20521;-83
2021/10/07 11:26:31;;;;;;;5.50;3.40;;;;;;;12.72;79.75;97174.66;4952986;28;20053;-83
2021/10/07 11:28:58;;;;;;;6.05;2.90;;;;;;;14.79;72.43;97173.00;4970633;28;20041;-82
2021/10/07 11:31:28;;;;;;;6.70;3.53;;;;;;;15.61;65.96;97169.53;4951470;28;20033;-82
2021/10/07 11:34:00;;;;;;;5.20;2.80;;;;;;;15.86;63.51;97170.34;4937298;28;20034;-82
2021/10/07 11:36:29;;;;;;;4.43;2.90;;;;;;;17.06;60.90;97152.38;4940497;28;20488;-82
2021/10/07 11:38:59;;;;;;;5.00;2.70;;;;;;;17.22;60.96;97162.91;4953038;28;21038;-82
2021/10/07 11:41:34;;;;;;;5.38;2.75;;;;;;;16.65;60.04;97161.41;4953022;28;20397;-82
2021/10/07 11:44:05;;;;;;;4.20;2.50;;;;;;;17.26;58.64;97152.72;4953326;28;20027;-82
2021/10/07 11:46:35;;;;;;;4.68;2.30;;;;;;;17.29;60.12;97152.38;4968859;28;20040;-82
2021/10/07 11:49:01;;;;;;;3.97;2.05;;;;;;;17.18;57.68;97150.97;4937564;28;20512;-82